Time;durP1;ratioP1;P1;durP2;ratioP2;P2;SDS_P1;SDS_P2;PMS_P1;PMS_P2;Temp;Humidity;BMP_temperature;BMP_pressure;BME280_temperature;BME280_humidity;BME280_pressure;Samples;Min_cycle;Max_cycle;Signal;HPM_P1;HPM_P2
2022/09/26 00:01:21;;;;;;;4.00;2.85;;;12.80;81.20;;;;;;5133004;28;20024;-29
2022/09/26 00:03:49;;;;;;;5.03;2.95;;;12.80;81.20;;;;;;5133062;28;20087;-29
2022/09/26 00:06:16;;;;;;;4.70;3.20;;;12.70;81.20;;;;;;5133105;28;20114;-28
2022/09/26 00:08:43;;;;;;;3.47;2.92;;;12.70;81.10;;;;;;5133127;28;20023;-29
2022/09/26 00:11:12;;;;;;;4.45;2.88;;;12.70;81.20;;;;;;5133062;28;20043;-29
2022/09/26 00:13:40;;;;;;;2.78;2.40;;;12.70;81.20;;;;;;5136487;27;20050;-28
2022/09/26 00:16:07;;;;;;;4.60;2.70;;;12.80;81.30;;;;;;5136879;27;20336;-28
2022/09/26 00:18:33;;;;;;;3.83;2.78;;;12.70;81.20;;;;;;5137337;27;20076;-30
2022/09/26 00:21:08;;;;;;;3.03;2.70;;;12.80;81.20;;;;;;5136908;27;20023;-29
2022/09/26 00:23:34;;;;;;;2.60;2.38;;;12.80;81.20;;;;;;5137094;27;20023;-27
2022/09/26 00:26:00;;;;;;;3.55;2.53;;;12.70;81.10;;;;;;5137297;27;20034;-28
2022/09/26 00:28:26;;;;;;;3.80;2.60;;;12.80;81.20;;;;;;5136737;27;20072;-30
2022/09/26 00:30:52;;;;;;;4.38;2.88;;;12.80;81.20;;;;;;5136540;27;20024;-28
2022/09/26 00:33:17;;;;;;;3.30;2.67;;;12.80;81.20;;;;;;5136940;27;20026;-27
2022/09/26 00:35:53;;;;;;;4.70;2.80;;;12.90;81.80;;;;;;5136507;27;20479;-28
2022/09/26 00:38:20;;;;;;;3.20;2.40;;;12.90;81.10;;;;;;5136493;27;20494;-27
2022/09/26 00:40:46;;;;;;;3.78;2.30;;;12.90;81.00;;;;;;5136472;27;20051;-28
2022/09/26 00:43:31;;;;;;;4.55;2.70;;;12.90;81.00;;;;;;5137372;27;20055;-29
2022/09/26 00:46:12;;;;;;;4.00;2.75;;;12.90;81.60;;;;;;5136355;27;20028;-29
2022/09/26 00:48:40;;;;;;;3.47;2.45;;;12.90;80.90;;;;;;5136772;27;20027;-29
2022/09/26 00:51:06;;;;;;;4.00;2.60;;;12.90;81.00;;;;;;5136730;27;20486;-28
2022/09/26 00:53:37;;;;;;;2.45;2.22;;;12.90;81.00;;;;;;5136745;27;20031;-27
2022/09/26 00:56:10;;;;;;;3.40;2.58;;;12.90;80.90;;;;;;5136637;27;20027;-28
2022/09/26 00:58:41;;;;;;;3.60;2.42;;;13.00;81.00;;;;;;5136547;27;20043;-29
2022/09/26 01:01:08;;;;;;;3.20;2.40;;;13.00;80.90;;;;;;5136401;27;20378;-29
2022/09/26 01:03:36;;;;;;;2.78;2.35;;;13.00;80.90;;;;;;5136316;27;20056;-28
2022/09/26 01:06:02;;;;;;;5.32;2.22;;;13.00;81.00;;;;;;5136111;27;20449;-27
2022/09/26 01:08:33;;;;;;;4.20;2.55;;;13.00;81.00;;;;;;5136232;27;20019;-28
2022/09/26 01:10:58;;;;;;;3.08;2.20;;;12.90;81.00;;;;;;5135689;27;20015;-28
2022/09/26 01:13:25;;;;;;;3.25;2.70;;;12.90;81.10;;;;;;5135618;27;20084;-28
2022/09/26 01:15:51;;;;;;;5.97;2.47;;;12.90;81.10;;;;;;5135918;27;20106;-28
2022/09/26 01:18:17;;;;;;;4.43;2.70;;;12.90;81.20;;;;;;5135594;27;20143;-32
2022/09/26 01:21:04;;;;;;;2.70;2.30;;;12.90;81.30;;;;;;5135813;27;20027;-29
2022/09/26 01:24:07;;;;;;;3.20;2.40;;;12.90;81.40;;;;;;5134698;27;20486;-27
2022/09/26 01:26:38;;;;;;;4.20;2.35;;;12.80;81.50;;;;;;5135336;27;20172;-29
2022/09/26 01:29:29;;;;;;;3.03;2.50;;;12.80;81.60;;;;;;5135705;27;20382;-30
2022/09/26 01:35:21;;;;;;;3.22;2.70;;;12.80;81.80;;;;;;5135486;27;20084;-27
2022/09/26 01:37:58;;;;;;;2.92;2.55;;;12.80;81.80;;;;;;5135272;27;20030;-27
2022/09/26 01:40:31;;;;;;;4.95;2.58;;;12.80;81.90;;;;;;5135255;27;20027;-28
2022/09/26 01:43:12;;;;;;;3.75;2.60;;;12.80;81.90;;;;;;5135101;27;20035;-27
2022/09/26 01:45:57;;;;;;;4.53;2.80;;;12.80;82.60;;;;;;5134904;27;20027;-30
2022/09/26 01:48:30;;;;;;;4.15;2.88;;;12.80;82.00;;;;;;5135075;27;20417;-28
2022/09/26 01:51:11;;;;;;;3.42;2.97;;;12.80;81.90;;;;;;5135483;27;20576;-28
2022/09/26 01:53:45;;;;;;;4.57;2.42;;;12.80;82.00;;;;;;5134909;27;20525;-27
2022/09/26 01:56:25;;;;;;;3.22;2.75;;;12.80;82.00;;;;;;5135253;27;20019;-29
2022/09/26 01:58:59;;;;;;;4.15;2.83;;;12.80;82.00;;;;;;5134731;27;20071;-29
2022/09/26 02:01:28;;;;;;;4.10;2.50;;;12.80;82.00;;;;;;5135019;27;20054;-30
2022/09/26 02:03:57;;;;;;;2.80;2.50;;;12.80;81.90;;;;;;5135056;27;20492;-28
2022/09/26 02:06:34;;;;;;;4.95;2.47;;;12.80;81.90;;;;;;5134625;27;20471;-27
2022/09/26 02:09:08;;;;;;;5.32;2.67;;;12.90;82.00;;;;;;5134908;27;20042;-30
2022/09/26 02:11:37;;;;;;;3.53;2.65;;;12.90;82.00;;;;;;5134603;27;20433;-27
2022/09/26 02:14:09;;;;;;;4.47;2.85;;;12.90;81.90;;;;;;5134817;27;20083;-27
2022/09/26 02:16:40;;;;;;;3.28;2.65;;;12.80;81.90;;;;;;5134862;27;20553;-27
2022/09/26 02:19:13;;;;;;;4.10;2.65;;;12.80;81.90;;;;;;5134606;27;20102;-28
2022/09/26 02:21:41;;;;;;;3.63;2.72;;;12.80;81.90;;;;;;5134423;27;20591;-27
2022/09/26 02:24:06;;;;;;;2.75;2.50;;;12.80;81.90;;;;;;5134708;27;20030;-28
2022/09/26 02:26:32;;;;;;;3.70;2.42;;;12.80;81.80;;;;;;5115739;27;20023;-27
2022/09/26 02:28:58;;;;;;;6.50;2.80;;;12.80;81.80;;;;;;5134446;27;20011;-28
2022/09/26 02:31:28;;;;;;;3.75;2.45;;;12.80;81.80;;;;;;5134142;27;20043;-28
2022/09/26 02:33:55;;;;;;;5.07;2.30;;;12.80;81.80;;;;;;5134438;27;20023;-30
2022/09/26 02:36:21;;;;;;;3.05;2.42;;;12.70;82.30;;;;;;5133713;27;20332;-28
2022/09/26 02:38:47;;;;;;;4.88;2.50;;;12.70;81.60;;;;;;5134089;27;20102;-27
2022/09/26 02:41:46;;;;;;;4.03;2.58;;;12.70;81.60;;;;;;5134207;27;20119;-30
2022/09/26 02:44:51;;;;;;;3.42;2.53;;;12.70;81.60;;;;;;5134235;27;20495;-27
2022/09/26 02:48:01;;;;;;;4.35;2.53;;;12.70;81.50;;;;;;5115394;27;20081;-37
2022/09/26 02:50:45;;;;;;;4.38;2.60;;;12.70;81.40;;;;;;5086169;27;20035;-27
2022/09/26 02:53:17;;;;;;;4.95;2.50;;;12.70;81.40;;;;;;5115333;27;20034;-43
2022/09/26 02:56:02;;;;;;;4.93;2.60;;;12.70;81.30;;;;;;5133936;27;20523;-42
2022/09/26 02:58:54;;;;;;;4.07;2.45;;;12.70;81.30;;;;;;5133494;27;20051;-43
2022/09/26 03:01:30;;;;;;;5.22;2.35;;;12.70;81.20;;;;;;5094452;27;20039;-42
2022/09/26 03:04:04;;;;;;;2.85;2.10;;;12.70;81.20;;;;;;5133787;27;20035;-43
2022/09/26 03:06:36;;;;;;;4.22;2.20;;;12.70;81.10;;;;;;5133383;27;20052;-41
2022/09/26 03:09:03;;;;;;;4.80;2.20;;;12.80;81.00;;;;;;5133522;27;20475;-40
2022/09/26 03:11:30;;;;;;;3.15;2.15;;;12.70;80.90;;;;;;5133503;27;20008;-43
2022/09/26 03:13:56;;;;;;;2.95;2.25;;;12.70;80.90;;;;;;5133413;27;20465;-42
2022/09/26 03:16:24;;;;;;;2.55;2.20;;;12.80;80.90;;;;;;5133432;27;20026;-42
2022/09/26 03:19:14;;;;;;;4.15;2.50;;;12.70;80.80;;;;;;5133293;27;20478;-42
2022/09/26 03:21:40;;;;;;;4.88;2.40;;;12.80;80.90;;;;;;5133332;27;20019;-42
2022/09/26 03:24:05;;;;;;;4.18;2.08;;;12.70;80.90;;;;;;5133582;27;20019;-42
2022/09/26 03:26:33;;;;;;;4.30;2.30;;;12.70;80.90;;;;;;5133471;27;20027;-43
2022/09/26 03:28:58;;;;;;;3.30;2.33;;;12.70;81.00;;;;;;5133306;27;20058;-40
2022/09/26 03:31:24;;;;;;;4.90;2.15;;;12.70;81.00;;;;;;5133394;27;20051;-42
2022/09/26 03:33:50;;;;;;;5.20;2.20;;;12.70;81.00;;;;;;5133239;27;20015;-40
2022/09/26 03:36:17;;;;;;;4.00;2.55;;;12.70;81.10;;;;;;5133461;27;20062;-41
2022/09/26 03:38:42;;;;;;;2.60;2.38;;;12.70;81.20;;;;;;5133376;27;20036;-40
2022/09/26 03:41:08;;;;;;;2.58;2.10;;;12.60;81.80;;;;;;5133019;28;20027;-43
2022/09/26 03:43:35;;;;;;;3.88;2.58;;;12.60;81.20;;;;;;5133279;28;20027;-42
2022/09/26 03:46:03;;;;;;;3.20;2.10;;;12.60;81.30;;;;;;5132899;27;20027;-41
2022/09/26 03:48:29;;;;;;;4.57;2.28;;;12.60;81.30;;;;;;5136383;27;20027;-41
2022/09/26 03:51:03;;;;;;;6.10;2.50;;;12.60;81.30;;;;;;5137458;27;20414;-42
2022/09/26 03:53:34;;;;;;;3.50;2.15;;;12.60;81.30;;;;;;5137293;27;20026;-38
2022/09/26 03:56:13;;;;;;;4.38;2.30;;;12.50;81.40;;;;;;5137400;27;20393;-41
2022/09/26 03:58:39;;;;;;;5.22;2.50;;;12.60;81.60;;;;;;5136893;27;20050;-43
2022/09/26 04:01:07;;;;;;;4.18;2.50;;;12.50;81.50;;;;;;5137512;27;20030;-42
2022/09/26 04:03:38;;;;;;;7.57;2.25;;;12.50;81.60;;;;;;5137272;27;20607;-27
2022/09/26 04:06:07;;;;;;;2.65;2.30;;;12.50;81.70;;;;;;5136933;27;20474;-28
2022/09/26 04:08:33;;;;;;;3.85;2.47;;;12.40;81.70;;;;;;5137241;27;20026;-27
2022/09/26 04:11:03;;;;;;;2.97;2.17;;;12.40;81.70;;;;;;5136884;27;20031;-28
2022/09/26 04:13:30;;;;;;;3.17;2.38;;;12.40;81.80;;;;;;5137124;27;20026;-33
2022/09/26 04:15:57;;;;;;;4.00;1.83;;;12.40;81.80;;;;;;5136731;27;20031;-28
2022/09/26 04:18:23;;;;;;;3.70;2.20;;;12.40;82.50;;;;;;5136709;27;20023;-27
2022/09/26 04:20:49;;;;;;;3.28;2.17;;;12.30;81.80;;;;;;5136722;27;20505;-26
2022/09/26 04:23:15;;;;;;;3.30;2.30;;;12.30;81.80;;;;;;5137219;27;20027;-28
2022/09/26 04:25:40;;;;;;;2.40;1.90;;;12.30;81.80;;;;;;5136660;27;20072;-30
2022/09/26 04:28:07;;;;;;;5.68;2.10;;;12.30;81.80;;;;;;5118204;27;20385;-28
2022/09/26 04:30:32;;;;;;;2.38;1.77;;;12.30;81.60;;;;;;5136379;27;20077;-28
2022/09/26 04:32:58;;;;;;;4.03;1.90;;;12.30;81.60;;;;;;5118114;27;20035;-35
2022/09/26 04:35:24;;;;;;;3.83;1.95;;;12.30;81.50;;;;;;5136703;27;20038;-29
2022/09/26 04:37:50;;;;;;;3.67;1.98;;;12.30;81.50;;;;;;5137183;27;20023;-28
2022/09/26 04:40:16;;;;;;;3.58;1.60;;;12.30;81.40;;;;;;5117877;27;20431;-27
2022/09/26 04:42:41;;;;;;;3.42;1.80;;;12.30;81.50;;;;;;5136539;27;20026;-41
2022/09/26 04:45:07;;;;;;;3.42;1.77;;;12.20;81.40;;;;;;5136356;27;20027;-42
2022/09/26 04:47:33;;;;;;;2.28;1.60;;;12.20;81.40;;;;;;5136483;27;20023;-40
2022/09/26 04:49:58;;;;;;;2.88;1.70;;;12.20;81.30;;;;;;5136162;27;20380;-44
2022/09/26 04:52:25;;;;;;;3.95;1.70;;;12.30;81.40;;;;;;5136415;27;20031;-41
2022/09/26 04:54:51;;;;;;;6.03;1.80;;;12.30;81.40;;;;;;5136273;27;20031;-42
2022/09/26 04:57:16;;;;;;;3.92;1.80;;;12.30;81.20;;;;;;5135898;27;20055;-42
2022/09/26 04:59:42;;;;;;;4.63;2.05;;;12.30;81.10;;;;;;5135838;27;20059;-40
2022/09/26 05:02:08;;;;;;;2.40;1.80;;;12.30;81.00;;;;;;5135960;27;20027;-43
2022/09/26 05:04:34;;;;;;;3.38;1.77;;;12.20;80.90;;;;;;5135934;27;20023;-40
2022/09/26 05:07:00;;;;;;;2.17;1.58;;;12.30;81.00;;;;;;5136295;27;20374;-41
2022/09/26 05:09:26;;;;;;;2.25;1.60;;;12.30;80.90;;;;;;5136283;27;20023;-43
2022/09/26 05:11:51;;;;;;;2.70;1.80;;;12.30;80.90;;;;;;5136285;27;20474;-41
2022/09/26 05:14:17;;;;;;;4.22;1.80;;;12.30;80.80;;;;;;5135889;27;20015;-42
2022/09/26 05:16:43;;;;;;;2.65;1.63;;;12.30;80.70;;;;;;5135940;27;20027;-41
2022/09/26 05:19:08;;;;;;;4.50;1.60;;;12.30;80.60;;;;;;5136214;27;20080;-39
2022/09/26 05:21:34;;;;;;;3.47;1.58;;;12.30;80.60;;;;;;5117456;27;20027;-41
2022/09/26 05:26:47;;;;;;;2.53;1.58;;;12.30;80.60;;;;;;5135774;27;20394;-43
2022/09/26 05:29:13;;;;;;;5.07;1.85;;;12.30;80.60;;;;;;5136114;27;20091;-43
2022/09/26 05:31:39;;;;;;;3.25;1.70;;;12.30;80.80;;;;;;5135973;27;20399;-43
2022/09/26 05:34:12;;;;;;;4.38;1.73;;;12.20;80.80;;;;;;5134825;27;20067;-43
2022/09/26 05:36:38;;;;;;;3.47;2.00;;;12.20;80.90;;;;;;5136180;27;20532;-42
2022/09/26 05:40:55;;;;;;;3.05;1.80;;;12.20;81.10;;;;;;5135755;27;20020;-42
2022/09/26 05:41:52;;;;;;;3.45;1.90;;;12.20;81.10;;;;;;5135333;27;20023;-43
2022/09/26 05:44:18;;;;;;;2.55;1.65;;;12.10;81.10;;;;;;5135804;27;20019;-40
2022/09/26 05:46:44;;;;;;;3.75;1.77;;;12.10;81.20;;;;;;5135386;27;20102;-41
2022/09/26 05:49:13;;;;;;;3.90;2.10;;;12.10;81.20;;;;;;5135087;27;20448;-43
2022/09/26 05:51:40;;;;;;;4.25;2.08;;;12.10;81.20;;;;;;5135012;27;20446;-43
2022/09/26 05:54:06;;;;;;;4.68;1.98;;;12.10;81.20;;;;;;5135392;27;20380;-41
2022/09/26 05:56:31;;;;;;;2.47;1.55;;;12.10;81.20;;;;;;5134698;27;20023;-43
2022/09/26 05:58:57;;;;;;;2.38;1.80;;;12.10;81.20;;;;;;5134972;27;20362;-39
2022/09/26 06:01:23;;;;;;;2.65;1.70;;;12.10;81.20;;;;;;5134589;27;20031;-41
2022/09/26 06:03:49;;;;;;;3.20;1.83;;;12.10;81.20;;;;;;5134859;27;20063;-43
2022/09/26 06:06:17;;;;;;;2.92;1.80;;;12.10;81.10;;;;;;5134774;27;20478;-43
2022/09/26 06:08:43;;;;;;;3.03;1.85;;;12.20;81.20;;;;;;5134721;27;20087;-42
2022/09/26 06:11:14;;;;;;;5.10;2.03;;;12.20;81.20;;;;;;5134196;27;20023;-42
2022/09/26 06:13:44;;;;;;;2.03;1.65;;;12.20;81.20;;;;;;5134765;27;20023;-40
2022/09/26 06:16:13;;;;;;;2.47;1.70;;;12.20;81.20;;;;;;5134250;27;20030;-42
2022/09/26 06:18:40;;;;;;;3.40;1.90;;;12.20;81.10;;;;;;5115669;27;20020;-43
2022/09/26 06:21:08;;;;;;;3.28;1.80;;;12.20;81.20;;;;;;5134732;27;20027;-42
2022/09/26 06:23:35;;;;;;;3.50;2.05;;;12.20;81.20;;;;;;5134517;27;20073;-41
2022/09/26 06:26:07;;;;;;;2.20;1.70;;;12.20;81.20;;;;;;5134631;27;20042;-41
2022/09/26 06:28:33;;;;;;;3.60;1.85;;;12.20;81.30;;;;;;5116363;27;20072;-42
2022/09/26 06:30:59;;;;;;;2.58;1.80;;;12.20;81.40;;;;;;5134267;27;20462;-40
2022/09/26 06:33:24;;;;;;;2.38;1.73;;;12.20;82.00;;;;;;5134392;27;20054;-43
2022/09/26 06:36:01;;;;;;;3.45;1.73;;;12.20;81.40;;;;;;5133950;27;20069;-44
2022/09/26 06:38:27;;;;;;;3.10;1.80;;;12.20;81.40;;;;;;5134394;27;20420;-43
2022/09/26 06:40:53;;;;;;;3.53;1.88;;;12.20;81.30;;;;;;5134062;27;20041;-39
2022/09/26 06:43:19;;;;;;;5.40;2.00;;;12.20;81.30;;;;;;5133999;27;20035;-41
2022/09/26 06:45:47;;;;;;;3.17;1.60;;;12.30;81.30;;;;;;5133910;27;20027;-40
2022/09/26 06:48:14;;;;;;;4.50;1.90;;;12.30;81.20;;;;;;5133982;27;20019;-43
2022/09/26 06:50:39;;;;;;;4.05;1.73;;;12.30;81.10;;;;;;5133819;27;20054;-43
2022/09/26 06:53:05;;;;;;;3.47;1.90;;;12.30;81.00;;;;;;5133967;27;20509;-40
2022/09/26 06:55:31;;;;;;;5.47;2.25;;;12.40;81.00;;;;;;5133408;27;20387;-44
2022/09/26 06:57:57;;;;;;;3.08;1.73;;;12.40;80.90;;;;;;5133380;27;20089;-42
2022/09/26 07:00:23;;;;;;;1.75;1.60;;;12.40;80.80;;;;;;5133804;27;20507;-41
2022/09/26 07:02:53;;;;;;;4.65;2.15;;;12.50;80.80;;;;;;5133524;27;20063;-41
2022/09/26 07:05:23;;;;;;;4.82;2.13;;;12.50;80.80;;;;;;5133698;27;20384;-40
2022/09/26 07:07:49;;;;;;;3.35;1.70;;;12.50;80.80;;;;;;5133854;27;20094;-41
2022/09/26 07:10:19;;;;;;;4.88;2.10;;;12.50;80.70;;;;;;5133715;27;20017;-42
2022/09/26 07:12:47;;;;;;;5.22;2.08;;;12.50;80.70;;;;;;5133934;27;20467;-41
2022/09/26 07:15:15;;;;;;;4.80;2.10;;;12.50;80.80;;;;;;5133654;27;20099;-42
2022/09/26 07:17:41;;;;;;;2.00;1.80;;;12.50;80.80;;;;;;5133824;27;20015;-41
2022/09/26 07:20:12;;;;;;;4.57;1.80;;;12.50;80.80;;;;;;5133955;27;20021;-39
2022/09/26 07:22:37;;;;;;;4.93;2.00;;;12.50;80.70;;;;;;5133792;27;20019;-42
2022/09/26 07:25:04;;;;;;;3.05;1.73;;;12.50;80.70;;;;;;5133463;27;20023;-42
2022/09/26 07:27:29;;;;;;;5.93;1.98;;;12.50;80.70;;;;;;5133504;27;20354;-42
2022/09/26 07:29:55;;;;;;;3.33;1.73;;;12.50;80.70;;;;;;5133169;27;20015;-41
2022/09/26 07:32:21;;;;;;;4.82;2.20;;;12.60;80.80;;;;;;5133513;27;20023;-45
2022/09/26 07:34:47;;;;;;;3.75;1.92;;;12.60;80.80;;;;;;5133359;27;20019;-43
2022/09/26 07:37:14;;;;;;;2.72;1.90;;;12.60;80.80;;;;;;5133216;27;20023;-43
2022/09/26 07:39:39;;;;;;;3.88;1.80;;;12.60;80.80;;;;;;5133153;27;20091;-43
2022/09/26 07:42:06;;;;;;;2.35;1.52;;;12.60;80.80;;;;;;5133375;28;20023;-44
2022/09/26 07:44:31;;;;;;;5.18;2.15;;;12.60;80.70;;;;;;5133353;28;20034;-42
2022/09/26 07:52:27;;;;;;;4.95;2.40;;;12.70;80.70;;;;;;5133320;28;20112;-42
2022/09/26 07:54:53;;;;;;;7.60;2.45;;;12.80;80.70;;;;;;5133444;28;20023;-44
2022/09/26 07:57:18;;;;;;;4.60;2.33;;;12.80;80.60;;;;;;5133028;28;20043;-43
2022/09/26 07:59:44;;;;;;;3.40;2.10;;;12.80;80.60;;;;;;5133156;28;20023;-41
2022/09/26 08:02:32;;;;;;;2.92;1.90;;;12.80;80.60;;;;;;5133358;28;20023;-43
2022/09/26 08:04:59;;;;;;;5.18;1.80;;;12.90;80.60;;;;;;5133361;28;20028;-42
2022/09/26 08:07:24;;;;;;;2.72;1.55;;;12.90;80.60;;;;;;5133302;28;20036;-41
2022/09/26 08:09:53;;;;;;;4.00;1.85;;;12.90;80.50;;;;;;5133025;28;20019;-40
2022/09/26 08:12:19;;;;;;;3.65;1.75;;;12.90;80.50;;;;;;5133415;28;20375;-41
2022/09/26 08:14:48;;;;;;;3.00;1.80;;;12.90;80.50;;;;;;5132954;28;20019;-42
2022/09/26 08:17:15;;;;;;;7.57;1.77;;;12.90;80.50;;;;;;5132908;28;20504;-44
2022/09/26 08:19:41;;;;;;;5.18;1.60;;;13.00;80.50;;;;;;5133079;28;20510;-42
2022/09/26 08:22:07;;;;;;;2.72;1.50;;;13.00;80.40;;;;;;5114408;28;20066;-41
2022/09/26 08:24:32;;;;;;;3.55;1.70;;;13.00;80.30;;;;;;5133186;28;20020;-45
2022/09/26 08:26:59;;;;;;;4.60;2.00;;;13.00;80.30;;;;;;5132669;28;20550;-41
2022/09/26 08:29:25;;;;;;;3.58;1.90;;;13.00;80.90;;;;;;5133059;28;20079;-41
2022/09/26 08:31:53;;;;;;;4.47;1.90;;;13.00;80.20;;;;;;5114364;28;20026;-46
2022/09/26 08:34:20;;;;;;;5.38;1.50;;;13.00;80.20;;;;;;5135428;27;20027;-42
2022/09/26 08:36:53;;;;;;;3.58;1.85;;;13.00;80.20;;;;;;5137099;27;20023;-42
2022/09/26 08:39:22;;;;;;;4.13;1.75;;;13.10;80.20;;;;;;5136966;27;20027;-42
2022/09/26 08:42:18;;;;;;;4.20;1.60;;;13.10;80.30;;;;;;5136859;27;20024;-43
2022/09/26 08:48:39;;;;;;;4.18;1.73;;;13.20;80.10;;;;;;5136778;27;20120;-44
2022/09/26 08:51:40;;;;;;;5.10;1.90;;;13.20;80.00;;;;;;5136749;27;20110;-44
2022/09/26 08:54:12;;;;;;;4.78;1.70;;;13.20;80.00;;;;;;5131305;27;20035;-40
2022/09/26 08:57:01;;;;;;;4.87;1.90;;;13.30;80.00;;;;;;5136053;27;20098;-42
2022/09/26 08:59:40;;;;;;;3.45;1.50;;;13.30;79.90;;;;;;5136408;27;20038;-44
2022/09/26 09:02:24;;;;;;;4.18;1.67;;;13.30;80.00;;;;;;5136154;27;20042;-40
2022/09/26 09:04:58;;;;;;;3.45;1.80;;;13.30;80.00;;;;;;5136245;27;20020;-39
2022/09/26 09:07:24;;;;;;;;;;;13.30;80.10;;;;;;5137258;27;20035;-44
2022/09/26 09:09:55;;;;;;;4.90;1.70;;;13.20;80.10;;;;;;5136184;27;19914;-45
2022/09/26 09:12:55;;;;;;;2.60;1.50;;;13.20;80.20;;;;;;5135806;27;20133;-38
2022/09/26 09:15:42;;;;;;;3.55;1.63;;;13.20;80.30;;;;;;5136209;27;20038;-44
2022/09/26 09:18:28;;;;;;;3.10;1.52;;;13.20;80.40;;;;;;5136084;27;20019;-43
2022/09/26 09:21:20;;;;;;;4.72;1.73;;;13.20;80.60;;;;;;5136557;27;20031;-44
2022/09/26 09:24:51;;;;;;;3.92;1.70;;;13.20;80.80;;;;;;5136049;27;20080;-43
2022/09/26 09:27:35;;;;;;;3.85;1.70;;;13.20;80.90;;;;;;5056017;27;20142;-42
2022/09/26 09:30:09;;;;;;;4.32;2.03;;;13.20;81.10;;;;;;5135710;27;20104;-42
2022/09/26 09:32:47;;;;;;;4.78;1.80;;;13.30;81.30;;;;;;5135732;27;20015;-43
2022/09/26 09:35:15;;;;;;;6.13;1.70;;;13.30;81.30;;;;;;5136195;27;20039;-41
2022/09/26 09:37:47;;;;;;;7.22;1.70;;;13.20;81.40;;;;;;5136156;27;20044;-41
2022/09/26 09:40:24;;;;;;;5.57;1.90;;;13.30;81.60;;;;;;5136235;27;20118;-42
2022/09/26 09:42:58;;;;;;;2.85;1.83;;;13.30;81.70;;;;;;5136026;27;20516;-44
2022/09/26 09:45:45;;;;;;;4.60;2.05;;;13.20;81.70;;;;;;5134530;27;20030;-43
2022/09/26 09:48:12;;;;;;;3.10;1.73;;;13.20;81.80;;;;;;5135924;27;20042;-43
2022/09/26 09:50:51;;;;;;;2.85;1.70;;;13.30;81.90;;;;;;5135322;27;20096;-44
2022/09/26 09:53:27;;;;;;;4.28;1.92;;;13.30;82.00;;;;;;5135258;27;20027;-43
2022/09/26 09:56:10;;;;;;;3.58;1.88;;;13.30;82.00;;;;;;5135160;27;20023;-42
2022/09/26 09:58:52;;;;;;;3.13;1.58;;;13.40;82.00;;;;;;5135123;27;20053;-42
2022/09/26 10:01:26;;;;;;;3.20;1.85;;;13.40;82.00;;;;;;5135210;27;20095;-40
2022/09/26 10:04:03;;;;;;;4.68;1.80;;;13.40;82.00;;;;;;5135312;27;20085;-41
2022/09/26 10:06:31;;;;;;;2.33;1.75;;;13.40;82.10;;;;;;5135252;27;20051;-43
2022/09/26 10:08:57;;;;;;;2.75;1.80;;;13.50;82.20;;;;;;5135185;27;20466;-43
2022/09/26 10:11:40;;;;;;;2.90;1.90;;;13.40;82.20;;;;;;5134911;27;20023;-44
2022/09/26 10:14:12;;;;;;;3.40;1.92;;;13.40;82.40;;;;;;5135004;27;20056;-43
2022/09/26 10:17:08;;;;;;;2.28;1.70;;;13.40;82.50;;;;;;5134787;27;20023;-44
2022/09/26 10:19:39;;;;;;;4.50;1.92;;;13.40;82.50;;;;;;5134699;27;20119;-44
2022/09/26 10:22:16;;;;;;;2.92;1.70;;;13.40;82.50;;;;;;5134770;27;20046;-44
2022/09/26 10:24:46;;;;;;;6.60;2.15;;;13.40;82.70;;;;;;5134866;27;20020;-44
2022/09/26 10:27:24;;;;;;;3.60;2.15;;;13.40;82.80;;;;;;5116084;27;20029;-43
2022/09/26 10:29:58;;;;;;;4.85;2.72;;;13.40;82.90;;;;;;5135061;27;20103;-44
2022/09/26 10:32:24;;;;;;;3.75;3.00;;;13.30;82.90;;;;;;5135088;27;20098;-44
2022/09/26 10:35:14;;;;;;;4.90;2.80;;;13.30;83.00;;;;;;5134767;27;20523;-45
2022/09/26 10:37:40;;;;;;;3.45;2.35;;;13.30;83.30;;;;;;5134284;27;20030;-41
2022/09/26 10:40:51;;;;;;;2.65;1.90;;;13.30;83.30;;;;;;5134387;27;20076;-44
2022/09/26 10:43:21;;;;;;;4.22;2.00;;;13.30;83.50;;;;;;5113876;27;20038;-44
2022/09/26 10:45:53;;;;;;;2.00;1.80;;;13.20;83.70;;;;;;5134538;27;20039;-43
2022/09/26 10:48:23;;;;;;;3.33;1.90;;;13.20;83.80;;;;;;5134811;27;20023;-44
2022/09/26 10:50:52;;;;;;;5.38;3.00;;;13.30;84.00;;;;;;5134525;27;20050;-45
2022/09/26 10:53:21;;;;;;;5.60;3.65;;;13.30;84.10;;;;;;5134374;27;20091;-45
2022/09/26 10:55:57;;;;;;;6.53;2.90;;;13.20;84.30;;;;;;5134312;27;20474;-45
2022/09/26 10:58:28;;;;;;;3.85;1.98;;;13.20;84.30;;;;;;5134266;27;20398;-44
2022/09/26 11:00:56;;;;;;;2.20;2.00;;;13.20;84.40;;;;;;5134155;27;20032;-44
2022/09/26 11:03:42;;;;;;;4.07;2.10;;;13.20;84.50;;;;;;5134351;27;20023;-44
2022/09/26 11:06:27;;;;;;;4.47;2.00;;;13.20;84.70;;;;;;5134087;27;20027;-43
2022/09/26 11:08:58;;;;;;;2.97;1.90;;;13.10;84.80;;;;;;5133938;27;20023;-43
2022/09/26 11:11:26;;;;;;;3.35;1.90;;;13.10;85.00;;;;;;5134276;27;20024;-42
2022/09/26 11:13:54;;;;;;;3.58;2.10;;;13.10;85.00;;;;;;5134055;27;20030;-41
2022/09/26 11:16:20;;;;;;;3.53;2.00;;;13.10;85.30;;;;;;5133920;27;20032;-42
2022/09/26 11:19:27;;;;;;;4.32;2.20;;;13.10;85.40;;;;;;5133678;27;20186;-41
2022/09/26 11:22:26;;;;;;;2.50;1.63;;;13.10;85.70;;;;;;5133736;27;20051;-43
2022/09/26 11:25:05;;;;;;;3.90;2.35;;;13.10;85.80;;;;;;5133604;27;20027;-42
2022/09/26 11:27:50;;;;;;;4.40;2.83;;;13.00;85.90;;;;;;5133785;27;20385;-44
2022/09/26 11:30:19;;;;;;;5.13;2.72;;;13.10;86.10;;;;;;5133539;27;20031;-44
2022/09/26 11:32:55;;;;;;;6.10;2.40;;;13.10;86.10;;;;;;5133328;27;20023;-40
2022/09/26 11:38:46;;;;;;;5.90;3.45;;;13.10;86.30;;;;;;5133754;27;20460;-41
2022/09/26 11:41:36;;;;;;;4.60;3.20;;;13.00;86.30;;;;;;5133933;27;20424;-41
2022/09/26 11:44:35;;;;;;;4.72;3.13;;;13.00;86.40;;;;;;5133784;27;20386;-43
2022/09/26 11:47:29;;;;;;;3.60;2.20;;;13.00;86.60;;;;;;5133817;28;20039;-41
2022/09/26 11:50:01;;;;;;;2.80;2.00;;;13.00;86.70;;;;;;5133649;28;20034;-42
2022/09/26 11:53:05;;;;;;;3.75;1.90;;;12.90;86.80;;;;;;5133275;28;20031;-43
2022/09/26 11:55:50;;;;;;;3.53;2.10;;;13.00;87.00;;;;;;5030123;28;20030;-42
2022/09/26 11:58:38;;;;;;;4.05;2.10;;;13.00;87.00;;;;;;5125047;28;20043;-45
2022/09/26 12:01:22;;;;;;;2.75;1.80;;;13.00;87.10;;;;;;5133536;28;20419;-43
2022/09/26 12:04:06;;;;;;;4.03;1.70;;;13.00;87.10;;;;;;5133598;28;20050;-43
2022/09/26 12:06:40;;;;;;;3.10;1.77;;;13.00;87.10;;;;;;5133469;28;20044;-43
2022/09/26 12:09:38;;;;;;;2.15;1.80;;;13.00;87.10;;;;;;5135905;27;20042;-43
2022/09/26 12:12:15;;;;;;;4.10;2.00;;;13.00;87.10;;;;;;5080949;27;20073;-44
2022/09/26 12:15:07;;;;;;;3.15;2.10;;;13.00;87.20;;;;;;5137284;27;20106;-43
2022/09/26 12:18:01;;;;;;;6.57;2.20;;;13.00;87.40;;;;;;5137309;27;20116;-46
2022/09/26 12:21:03;;;;;;;2.78;1.65;;;13.00;87.50;;;;;;5137286;27;20042;-44
2022/09/26 12:23:53;;;;;;;3.60;1.73;;;13.00;87.70;;;;;;5137581;27;20308;-36
2022/09/26 12:26:30;;;;;;;2.30;1.77;;;13.00;87.70;;;;;;5124125;27;20105;-36
2022/09/26 12:29:11;;;;;;;2.15;1.80;;;13.00;87.90;;;;;;5137138;27;20057;-36
2022/09/26 12:32:01;;;;;;;4.25;1.90;;;13.00;87.90;;;;;;5137324;27;20035;-35
2022/09/26 12:35:02;;;;;;;2.15;1.48;;;13.00;87.90;;;;;;5136942;27;20023;-35
2022/09/26 12:37:48;;;;;;;2.22;1.83;;;13.00;87.90;;;;;;5132062;27;20076;-35
2022/09/26 12:40:47;;;;;;;2.92;1.77;;;13.00;87.90;;;;;;5137104;27;20492;-35
2022/09/26 12:43:56;;;;;;;3.03;1.65;;;13.10;88.00;;;;;;5085158;27;20108;-35
2022/09/26 12:46:33;;;;;;;2.92;1.70;;;13.10;88.00;;;;;;5120235;27;20050;-35
2022/09/26 12:49:38;;;;;;;3.70;2.65;;;13.10;88.10;;;;;;5118258;27;20474;-35
2022/09/26 12:52:28;;;;;;;6.82;2.92;;;13.10;88.10;;;;;;5136596;27;20038;-35
2022/09/26 12:55:15;;;;;;;5.13;2.40;;;13.00;88.20;;;;;;5136466;27;20075;-35
2022/09/26 12:58:13;;;;;;;5.35;2.10;;;13.00;88.20;;;;;;5136137;27;20051;-35
2022/09/26 13:01:13;;;;;;;2.97;2.33;;;13.00;88.40;;;;;;5136289;27;20505;-33
2022/09/26 13:03:42;;;;;;;3.08;2.20;;;13.00;88.30;;;;;;5136441;27;20348;-34
2022/09/26 13:06:13;;;;;;;6.85;3.88;;;13.10;88.40;;;;;;5136106;27;20042;-35
2022/09/26 13:09:11;;;;;;;5.65;2.92;;;13.10;88.40;;;;;;5136215;27;20020;-34
2022/09/26 13:11:45;;;;;;;3.65;2.78;;;13.20;88.40;;;;;;5128678;27;20414;-34
2022/09/26 13:14:14;;;;;;;5.90;3.22;;;13.10;88.30;;;;;;5136241;27;20102;-35
2022/09/26 13:17:08;;;;;;;3.33;2.20;;;13.20;88.30;;;;;;5135845;27;20038;-33
2022/09/26 13:19:59;;;;;;;3.40;2.33;;;13.20;88.40;;;;;;5136129;27;20039;-35
2022/09/26 13:23:03;;;;;;;5.05;2.45;;;13.20;88.40;;;;;;5135810;27;20053;-38
2022/09/26 13:25:52;;;;;;;3.28;2.38;;;13.20;88.40;;;;;;5068322;27;20043;-35
2022/09/26 13:28:32;;;;;;;3.13;2.00;;;13.20;88.40;;;;;;5135835;27;20420;-35
2022/09/26 13:31:22;;;;;;;3.28;2.28;;;13.20;88.40;;;;;;5135638;27;20103;-36
2022/09/26 13:34:00;;;;;;;2.67;2.05;;;13.20;88.50;;;;;;5135740;27;20377;-34
2022/09/26 13:36:29;;;;;;;2.42;2.13;;;13.20;88.40;;;;;;5135713;27;20029;-35
2022/09/26 13:39:13;;;;;;;2.50;2.00;;;13.20;88.40;;;;;;5135811;27;20019;-36
2022/09/26 13:41:55;;;;;;;2.53;1.77;;;13.30;88.40;;;;;;5135743;27;20138;-34